createdAt,value
2018-11-25T00:00:12.466Z,97645.80
2018-11-25T00:02:41.102Z,97646.66
2018-11-25T00:05:10.049Z,97643.41
2018-11-25T00:07:38.753Z,97634.54
2018-11-25T00:10:07.845Z,97630.86
2018-11-25T00:12:36.522Z,97633.48
2018-11-25T00:15:05.865Z,97631.37
2018-11-25T00:17:34.527Z,97632.23
2018-11-25T00:20:03.675Z,97625.52
2018-11-25T00:22:32.306Z,97627.63
2018-11-25T00:25:00.925Z,97632.71
2018-11-25T00:27:29.558Z,97625.42
2018-11-25T00:29:58.171Z,97627.59
2018-11-25T00:32:26.818Z,97623.59
2018-11-25T00:34:55.443Z,97623.28
2018-11-25T00:37:24.077Z,97623.80
2018-11-25T00:39:52.682Z,97619.27
2018-11-25T00:42:21.334Z,97613.94
2018-11-25T00:44:49.954Z,97613.80
2018-11-25T00:47:18.610Z,97610.53
2018-11-25T00:49:47.245Z,97615.30
2018-11-25T00:52:15.902Z,97617.41
2018-11-25T00:54:44.517Z,97604.56
2018-11-25T00:57:13.153Z,97604.02
2018-11-25T00:59:41.771Z,97597.92
2018-11-25T01:02:10.428Z,97600.06
2018-11-25T01:04:39.053Z,97600.23
2018-11-25T01:07:07.710Z,97597.81
2018-11-25T01:09:36.360Z,97599.38
2018-11-25T01:12:05.238Z,97605.34
2018-11-25T01:14:33.870Z,97616.05
2018-11-25T01:17:02.511Z,97602.94
2018-11-25T01:19:31.141Z,97606.67
2018-11-25T01:21:59.771Z,97597.44
2018-11-25T01:24:28.409Z,97592.11
2018-11-25T01:26:57.058Z,97595.59
2018-11-25T01:29:25.739Z,97592.33
2018-11-25T01:31:54.396Z,97583.53
2018-11-25T01:34:23.009Z,97596.19
2018-11-25T01:36:51.646Z,97594.44
2018-11-25T01:39:20.242Z,97591.11
2018-11-25T01:41:48.870Z,97601.23
2018-11-25T01:44:17.490Z,97602.63
2018-11-25T01:46:46.115Z,97595.24
2018-11-25T01:49:14.745Z,97594.39
2018-11-25T01:51:43.375Z,97590.00
2018-11-25T01:54:11.995Z,97583.94
2018-11-25T01:56:40.684Z,97591.09
2018-11-25T01:59:09.307Z,97591.14
2018-11-25T02:01:37.954Z,97592.56
2018-11-25T02:04:06.628Z,97589.39
2018-11-25T02:06:35.268Z,97587.31
2018-11-25T02:09:04.127Z,97583.93
2018-11-25T02:11:32.762Z,97582.34
2018-11-25T02:14:01.382Z,97575.41
2018-11-25T02:16:30.040Z,97571.00
2018-11-25T02:18:58.650Z,97570.17
2018-11-25T02:21:27.287Z,97573.09
2018-11-25T02:23:55.906Z,97565.90
2018-11-25T02:26:24.596Z,97565.34
2018-11-25T02:28:53.209Z,97558.95
2018-11-25T02:31:21.872Z,97558.17
2018-11-25T02:33:50.470Z,97559.52
2018-11-25T02:36:19.101Z,97553.91
2018-11-25T02:38:47.745Z,97550.72
2018-11-25T02:41:16.383Z,97551.03
2018-11-25T02:43:45.004Z,97545.69
2018-11-25T02:46:13.643Z,97540.38
2018-11-25T02:48:42.394Z,97541.46
2018-11-25T02:51:11.015Z,97547.63
2018-11-25T02:53:39.647Z,97545.55
2018-11-25T02:56:08.282Z,97544.70
2018-11-25T02:58:36.949Z,97543.16
2018-11-25T03:01:07.404Z,97540.18
2018-11-25T03:03:36.642Z,97537.20
2018-11-25T03:06:05.628Z,97539.59
2018-11-25T03:08:34.254Z,97539.88
2018-11-25T03:11:02.890Z,97541.20
2018-11-25T03:13:31.507Z,97539.58
2018-11-25T03:16:00.191Z,97536.36
2018-11-25T03:18:28.814Z,97535.80
2018-11-25T03:20:57.458Z,97528.38
2018-11-25T03:23:26.079Z,97533.13
2018-11-25T03:25:54.726Z,97530.45
2018-11-25T03:28:23.338Z,97533.08
2018-11-25T03:30:51.979Z,97534.72
2018-11-25T03:33:20.888Z,97528.03
2018-11-25T03:35:49.529Z,97526.39
2018-11-25T03:38:18.152Z,97523.78
2018-11-25T03:40:46.817Z,97526.27
2018-11-25T03:43:15.462Z,97520.39
2018-11-25T03:45:44.092Z,97518.30
2018-11-25T03:48:12.710Z,97515.31
2018-11-25T03:50:41.354Z,97519.30
2018-11-25T03:53:09.983Z,97518.80
2018-11-25T03:55:38.622Z,97517.19
2018-11-25T03:58:07.388Z,97518.50
2018-11-25T04:00:36.039Z,97517.50
2018-11-25T04:03:04.668Z,97515.35
2018-11-25T04:05:33.363Z,97519.38
2018-11-25T04:08:01.972Z,97517.20
2018-11-25T04:10:30.619Z,97509.70
2018-11-25T04:12:59.243Z,97511.63
2018-11-25T04:15:27.938Z,97505.73
2018-11-25T04:17:56.593Z,97504.15
2018-11-25T04:20:25.246Z,97501.98
2018-11-25T04:22:53.885Z,97502.00
2018-11-25T04:25:22.572Z,97497.98
2018-11-25T04:27:51.174Z,97501.97
2018-11-25T04:30:20.438Z,97503.02
2018-11-25T04:32:49.915Z,97503.58
2018-11-25T04:35:18.553Z,97497.93
2018-11-25T04:37:47.184Z,97492.33
2018-11-25T04:40:16.601Z,97500.05
2018-11-25T04:42:45.243Z,97505.64
2018-11-25T04:45:14.587Z,97497.89
2018-11-25T04:47:43.416Z,97493.41
2018-11-25T04:50:14.910Z,97491.75
2018-11-25T04:52:43.588Z,97492.55
2018-11-25T04:55:12.283Z,97496.02
2018-11-25T04:57:41.030Z,97488.53
2018-11-25T05:00:13.098Z,97488.55
2018-11-25T05:02:42.025Z,97494.13
2018-11-25T05:05:11.666Z,97488.31
2018-11-25T05:07:40.370Z,97484.80
2018-11-25T05:10:12.139Z,97486.16
2018-11-25T05:12:40.757Z,97478.94
2018-11-25T05:15:17.838Z,97483.54
2018-11-25T05:17:46.502Z,97483.48
2018-11-25T05:20:15.654Z,97484.31
2018-11-25T05:22:44.307Z,97482.22
2018-11-25T05:25:14.014Z,97483.54
2018-11-25T05:27:42.670Z,97480.61
2018-11-25T05:30:13.427Z,97474.73
2018-11-25T05:32:42.105Z,97475.21
2018-11-25T05:35:11.854Z,97476.28
2018-11-25T05:37:40.471Z,97474.70
2018-11-25T05:40:11.671Z,97481.38
2018-11-25T05:42:40.323Z,97473.06
2018-11-25T05:45:15.665Z,97477.12
2018-11-25T05:47:44.325Z,97473.94
2018-11-25T05:50:14.675Z,97474.75
2018-11-25T05:52:43.362Z,97483.33
2018-11-25T05:55:12.526Z,97477.44
2018-11-25T05:57:41.439Z,97479.28
2018-11-25T06:00:15.290Z,97485.17
2018-11-25T06:02:44.001Z,97484.95
2018-11-25T06:05:12.751Z,97482.30
2018-11-25T06:07:41.437Z,97484.15
2018-11-25T06:10:11.953Z,97489.18
2018-11-25T06:12:40.768Z,97494.27
2018-11-25T06:15:13.100Z,97490.52
2018-11-25T06:17:41.792Z,97489.18
2018-11-25T06:20:11.793Z,97487.38
2018-11-25T06:22:40.621Z,97489.23
2018-11-25T06:25:10.607Z,97488.94
2018-11-25T06:27:39.270Z,97484.45
2018-11-25T06:30:11.676Z,97486.84
2018-11-25T06:32:40.368Z,97488.70
2018-11-25T06:35:10.326Z,97484.93
2018-11-25T06:37:38.977Z,97489.22
2018-11-25T06:40:12.706Z,97488.94
2018-11-25T06:42:41.394Z,97493.76
2018-11-25T06:45:15.580Z,97491.35
2018-11-25T06:47:44.264Z,97486.84
2018-11-25T06:50:13.337Z,97494.33
2018-11-25T06:52:42.018Z,97496.77
2018-11-25T06:55:11.826Z,97493.03
2018-11-25T06:57:40.456Z,97493.02
2018-11-25T07:00:17.338Z,97503.71
2018-11-25T07:02:46.070Z,97500.50
2018-11-25T07:05:14.874Z,97501.04
2018-11-25T07:07:43.536Z,97509.05
2018-11-25T07:10:15.843Z,97508.78
2018-11-25T07:12:44.669Z,97506.66
2018-11-25T07:15:14.447Z,97510.66
2018-11-25T07:17:43.079Z,97503.95
2018-11-25T07:20:12.689Z,97506.38
2018-11-25T07:22:41.367Z,97502.61
2018-11-25T07:25:13.209Z,97499.94
2018-11-25T07:27:41.860Z,97504.77
2018-11-25T07:30:25.874Z,97509.05
2018-11-25T07:32:54.682Z,97510.34
2018-11-25T07:35:24.197Z,97511.70
2018-11-25T07:37:53.267Z,97515.98
2018-11-25T07:40:22.525Z,97513.58
2018-11-25T07:42:51.216Z,97518.94
2018-11-25T07:45:20.842Z,97514.40
2018-11-25T07:47:49.537Z,97502.91
2018-11-25T07:50:18.197Z,97505.57
2018-11-25T07:52:47.618Z,97507.95
2018-11-25T07:55:18.094Z,97505.30
2018-11-25T07:57:47.342Z,97514.93
2018-11-25T08:00:20.591Z,97505.56
2018-11-25T08:02:49.355Z,97509.84
2018-11-25T08:05:20.799Z,97506.63
2018-11-25T08:07:49.479Z,97503.94
2018-11-25T08:10:18.136Z,97502.33
2018-11-25T08:12:47.122Z,97490.06
2018-11-25T08:15:17.413Z,97486.83
2018-11-25T08:17:46.066Z,97490.28
2018-11-25T08:20:17.557Z,97487.08
2018-11-25T08:22:46.178Z,97490.52
2018-11-25T08:25:16.759Z,97486.48
2018-11-25T08:27:45.499Z,97481.64
2018-11-25T08:30:18.030Z,97481.08
2018-11-25T08:32:46.726Z,97471.47
2018-11-25T08:35:15.984Z,97474.13
2018-11-25T08:37:44.662Z,97471.23
2018-11-25T08:40:16.138Z,97466.64
2018-11-25T08:42:44.743Z,97460.43
2018-11-25T08:45:14.002Z,97457.74
2018-11-25T08:47:42.710Z,97460.38
2018-11-25T08:50:12.998Z,97463.06
2018-11-25T08:52:42.010Z,97461.71
2018-11-25T08:55:13.770Z,97455.61
2018-11-25T08:57:42.462Z,97454.48
2018-11-25T09:00:15.163Z,97452.27
2018-11-25T09:02:43.922Z,97452.01
2018-11-25T09:05:13.559Z,97441.31
2018-11-25T09:07:42.271Z,97441.50
2018-11-25T09:10:16.722Z,97442.55
2018-11-25T09:12:47.337Z,97439.03
2018-11-25T09:15:17.036Z,97428.58
2018-11-25T09:17:45.703Z,97432.02
2018-11-25T09:20:16.293Z,97425.56
2018-11-25T09:22:45.032Z,97424.08
2018-11-25T09:25:16.604Z,97428.89
2018-11-25T09:27:45.298Z,97421.92
2018-11-25T09:30:23.660Z,97427.09
2018-11-25T09:32:52.314Z,97423.77
2018-11-25T09:35:20.977Z,97420.01
2018-11-25T09:37:49.662Z,97417.75
2018-11-25T09:40:19.341Z,97415.39
2018-11-25T09:42:47.984Z,97411.00
2018-11-25T09:45:17.566Z,97406.51
2018-11-25T09:47:46.338Z,97404.59
2018-11-25T09:50:17.791Z,97397.61
2018-11-25T09:52:46.459Z,97396.97
2018-11-25T09:55:17.029Z,97389.73
2018-11-25T09:57:50.727Z,97388.53
2018-11-25T10:00:21.327Z,97379.13
2018-11-25T10:02:49.995Z,97374.22
2018-11-25T10:05:18.699Z,97380.09
2018-11-25T10:07:47.419Z,97374.61
2018-11-25T10:10:17.142Z,97375.31
2018-11-25T10:12:45.827Z,97371.99
2018-11-25T10:15:16.368Z,97363.33
2018-11-25T10:17:45.038Z,97358.98
2018-11-25T10:20:17.531Z,97351.63
2018-11-25T10:22:46.221Z,97351.88
2018-11-25T10:25:15.546Z,97355.17
2018-11-25T10:27:44.175Z,97346.68
2018-11-25T10:30:14.082Z,97337.96
2018-11-25T10:32:42.892Z,97340.05
2018-11-25T10:35:11.911Z,97339.40
2018-11-25T10:37:40.546Z,97331.30
2018-11-25T10:40:16.720Z,97328.28
2018-11-25T10:42:45.360Z,97322.52
2018-11-25T10:45:18.740Z,97316.17
2018-11-25T10:47:47.628Z,97318.09
2018-11-25T10:50:18.193Z,97317.80
2018-11-25T10:52:46.910Z,97308.43
2018-11-25T10:55:16.504Z,97307.46
2018-11-25T10:57:46.042Z,97309.13
2018-11-25T11:00:22.754Z,97296.08
2018-11-25T11:02:56.884Z,97285.92
2018-11-25T11:05:30.912Z,97280.65
2018-11-25T11:07:59.731Z,97286.29
2018-11-25T11:10:28.409Z,97281.20
2018-11-25T11:12:57.023Z,97277.72
2018-11-25T11:15:25.674Z,97269.18
2018-11-25T11:17:54.301Z,97269.40
2018-11-25T11:20:23.111Z,97266.39
2018-11-25T11:22:51.796Z,97264.36
2018-11-25T11:25:20.909Z,97262.59
2018-11-25T11:27:49.515Z,97257.47
2018-11-25T11:30:18.154Z,97252.90
2018-11-25T11:32:48.222Z,97250.30
2018-11-25T11:35:16.873Z,97242.04
2018-11-25T11:37:45.511Z,97251.42
2018-11-25T11:40:15.044Z,97244.83
2018-11-25T11:42:43.662Z,97243.47
2018-11-25T11:45:13.262Z,97236.52
2018-11-25T11:47:42.511Z,97240.98
2018-11-25T11:50:13.273Z,97242.57
2018-11-25T11:52:41.938Z,97246.17
2018-11-25T11:55:11.751Z,97240.23
2018-11-25T11:57:40.926Z,97236.41
2018-11-25T12:00:18.563Z,97245.58
2018-11-25T12:02:47.207Z,97242.37
2018-11-25T12:05:15.890Z,97236.91
2018-11-25T12:07:44.538Z,97240.74
2018-11-25T12:10:14.202Z,97234.04
2018-11-25T12:12:42.844Z,97234.15
2018-11-25T12:15:15.030Z,97229.64
2018-11-25T12:17:43.668Z,97234.91
2018-11-25T12:20:12.490Z,97234.44
2018-11-25T12:22:41.173Z,97232.06
2018-11-25T12:25:13.935Z,97234.69
2018-11-25T12:27:42.571Z,97222.39
2018-11-25T12:30:12.332Z,97224.97
2018-11-25T12:32:41.226Z,97218.91
2018-11-25T12:35:10.921Z,97220.50
2018-11-25T12:37:39.546Z,97225.91
2018-11-25T12:40:10.691Z,97222.46
2018-11-25T12:42:39.481Z,97221.67
2018-11-25T12:45:10.101Z,97215.86
2018-11-25T12:47:38.732Z,97219.91
2018-11-25T12:50:10.245Z,97223.26
2018-11-25T12:52:38.889Z,97215.44
2018-11-25T12:55:10.194Z,97214.05
2018-11-25T12:57:38.830Z,97206.48
2018-11-25T13:00:25.633Z,97209.18
2018-11-25T13:02:54.262Z,97199.55
2018-11-25T13:05:22.931Z,97193.81
2018-11-25T13:07:51.579Z,97187.06
2018-11-25T13:10:20.211Z,97189.97
2018-11-25T13:12:48.861Z,97179.27
2018-11-25T13:15:17.483Z,97178.09
2018-11-25T13:17:46.134Z,97183.50
2018-11-25T13:20:15.518Z,97179.62
2018-11-25T13:22:44.171Z,97178.70
2018-11-25T13:25:16.391Z,97174.17
2018-11-25T13:27:45.102Z,97168.64
2018-11-25T13:30:21.647Z,97161.42
2018-11-25T13:32:51.282Z,97163.98
2018-11-25T13:35:19.908Z,97159.31
2018-11-25T13:37:48.550Z,97161.09
2018-11-25T13:40:17.498Z,97159.89
2018-11-25T13:42:46.159Z,97159.16
2018-11-25T13:45:14.806Z,97156.64
2018-11-25T13:47:43.446Z,97161.03
2018-11-25T13:50:12.728Z,97153.91
2018-11-25T13:52:41.379Z,97153.34
2018-11-25T13:55:13.066Z,97150.39
2018-11-25T13:57:41.762Z,97152.93
2018-11-25T14:00:18.534Z,97152.33
2018-11-25T14:02:47.207Z,97158.21
2018-11-25T14:05:16.080Z,97156.08
2018-11-25T14:07:44.789Z,97160.61
2018-11-25T14:10:17.342Z,97159.66
2018-11-25T14:12:45.960Z,97155.48
2018-11-25T14:15:14.590Z,97155.00
2018-11-25T14:17:43.255Z,97151.24
2018-11-25T14:20:11.874Z,97153.13
2018-11-25T14:22:40.502Z,97154.05
2018-11-25T14:25:11.896Z,97156.63
2018-11-25T14:27:40.527Z,97147.07
2018-11-25T14:30:13.638Z,97147.70
2018-11-25T14:32:42.104Z,97146.09
2018-11-25T14:35:12.228Z,97143.24
2018-11-25T14:37:40.860Z,97141.05
2018-11-25T14:40:11.905Z,97145.02
2018-11-25T14:42:40.539Z,97139.78
2018-11-25T14:45:10.851Z,97147.15
2018-11-25T14:47:39.538Z,97141.91
2018-11-25T14:50:15.038Z,97140.25
2018-11-25T14:52:44.639Z,97133.61
2018-11-25T14:55:14.045Z,97143.18
2018-11-25T14:57:42.760Z,97141.30
2018-11-25T15:00:21.440Z,97139.48
2018-11-25T15:02:51.609Z,97141.91
2018-11-25T15:05:29.707Z,97132.61
2018-11-25T15:07:58.402Z,97125.17
2018-11-25T15:10:27.051Z,97126.50
2018-11-25T15:12:55.679Z,97115.30
2018-11-25T15:15:24.354Z,97127.91
2018-11-25T15:17:53.008Z,97120.53
2018-11-25T15:20:22.352Z,97119.92
2018-11-25T15:22:52.791Z,97110.43
2018-11-25T15:25:25.047Z,97109.96
2018-11-25T15:27:53.678Z,97107.64
2018-11-25T15:30:22.566Z,97107.63
2018-11-25T15:32:51.222Z,97104.40
2018-11-25T15:35:20.903Z,97096.48
2018-11-25T15:37:50.988Z,97094.59
2018-11-25T15:40:22.527Z,97094.47
2018-11-25T15:42:51.188Z,97080.43
2018-11-25T15:45:19.937Z,97077.02
2018-11-25T15:47:51.522Z,97077.14
2018-11-25T15:50:24.674Z,97075.50
2018-11-25T15:52:53.327Z,97074.33
2018-11-25T15:55:22.252Z,97066.78
2018-11-25T15:57:51.720Z,97070.27
2018-11-25T16:00:20.775Z,97071.23
2018-11-25T16:02:49.489Z,97068.98
2018-11-25T16:05:19.655Z,97070.31
2018-11-25T16:07:48.359Z,97062.78
2018-11-25T16:10:17.017Z,97066.59
2018-11-25T16:12:47.023Z,97068.27
2018-11-25T16:15:16.899Z,97071.28
2018-11-25T16:17:45.626Z,97067.81
2018-11-25T16:20:16.333Z,97060.27
2018-11-25T16:22:45.323Z,97055.83
2018-11-25T16:25:17.754Z,97056.87
2018-11-25T16:27:46.839Z,97058.63
2018-11-25T16:30:15.459Z,97059.41
2018-11-25T16:32:44.095Z,97057.27
2018-11-25T16:35:12.730Z,97053.52
2018-11-25T16:37:41.966Z,97055.94
2018-11-25T16:40:12.166Z,97060.27
2018-11-25T16:42:41.125Z,97056.47
2018-11-25T16:45:12.220Z,97059.22
2018-11-25T16:47:40.884Z,97062.53
2018-11-25T16:50:24.518Z,97060.45
2018-11-25T16:52:44.272Z,97064.28
2018-11-25T16:55:13.687Z,97065.95
2018-11-25T16:57:42.908Z,97068.14
2018-11-25T17:00:18.258Z,97064.03
2018-11-25T17:02:46.924Z,97069.47
2018-11-25T17:05:18.739Z,97076.22
2018-11-25T17:07:48.994Z,97074.58
2018-11-25T17:10:17.623Z,97076.27
2018-11-25T17:12:46.261Z,97082.00
2018-11-25T17:15:16.571Z,97088.83
2018-11-25T17:17:48.032Z,97081.63
2018-11-25T17:20:16.655Z,97082.97
2018-11-25T17:22:45.351Z,97078.27
2018-11-25T17:25:14.526Z,97077.77
2018-11-25T17:27:43.511Z,97087.06
2018-11-25T17:30:14.086Z,97083.70
2018-11-25T17:32:43.225Z,97088.80
2018-11-25T17:35:17.118Z,97080.27
2018-11-25T17:37:45.750Z,97080.02
2018-11-25T17:40:14.400Z,97080.23
2018-11-25T17:42:43.050Z,97076.98
2018-11-25T17:45:12.728Z,97077.22
2018-11-25T17:47:41.676Z,97073.70
2018-11-25T17:50:22.014Z,97070.30
2018-11-25T17:52:50.719Z,97073.64
2018-11-25T17:55:20.315Z,97067.73
2018-11-25T17:57:48.972Z,97069.73
2018-11-25T18:00:24.049Z,97070.98
2018-11-25T18:02:52.671Z,97072.55
2018-11-25T18:05:21.297Z,97077.77
2018-11-25T18:07:49.958Z,97075.96
2018-11-25T18:10:18.631Z,97073.14
2018-11-25T18:12:47.271Z,97080.28
2018-11-25T18:15:18.244Z,97081.55
2018-11-25T18:17:51.250Z,97079.33
2018-11-25T18:20:19.879Z,97080.77
2018-11-25T18:22:49.324Z,97077.06
2018-11-25T18:25:17.943Z,97083.64
2018-11-25T18:27:46.586Z,97083.45
2018-11-25T18:30:16.806Z,97083.81
2018-11-25T18:32:45.951Z,97085.21
2018-11-25T18:35:14.573Z,97083.02
2018-11-25T18:37:43.202Z,97087.94
2018-11-25T18:40:13.119Z,97088.38
2018-11-25T18:42:42.366Z,97083.13
2018-11-25T18:45:12.490Z,97079.84
2018-11-25T18:47:43.846Z,97074.30
2018-11-25T18:50:13.648Z,97079.84
2018-11-25T18:52:42.938Z,97079.52
2018-11-25T18:55:10.313Z,97075.03
2018-11-25T18:57:38.977Z,97074.41
2018-11-25T19:00:11.815Z,97072.98
2018-11-25T19:02:43.533Z,97083.27
2018-11-25T19:05:12.199Z,97077.13
2018-11-25T19:07:40.876Z,97079.39
2018-11-25T19:10:13.919Z,97077.44
2018-11-25T19:12:44.212Z,97073.17
2018-11-25T19:15:12.488Z,97070.23
2018-11-25T19:17:41.267Z,97074.52
2018-11-25T19:20:40.591Z,97068.56
2018-11-25T19:23:09.311Z,97069.22
2018-11-25T19:25:37.950Z,97072.20
2018-11-25T19:28:08.962Z,97067.34
2018-11-25T19:30:37.614Z,97071.20
2018-11-25T19:33:07.686Z,97072.67
2018-11-25T19:35:36.312Z,97074.41
2018-11-25T19:38:05.023Z,97072.38
2018-11-25T19:40:33.790Z,97070.44
2018-11-25T19:43:02.457Z,97072.56
2018-11-25T19:45:31.082Z,97073.58
2018-11-25T19:47:59.736Z,97072.98
2018-11-25T19:50:33.419Z,97067.51
2018-11-25T19:53:02.072Z,97066.41
2018-11-25T19:55:30.739Z,97064.20
2018-11-25T19:57:59.373Z,97061.17
2018-11-25T20:00:28.261Z,97062.86
2018-11-25T20:02:56.940Z,97055.83
2018-11-25T20:05:25.566Z,97055.31
2018-11-25T20:07:54.243Z,97055.07
2018-11-25T20:10:24.163Z,97053.02
2018-11-25T20:12:54.186Z,97054.59
2018-11-25T20:15:22.863Z,97060.23
2018-11-25T20:17:54.346Z,97056.63
2018-11-25T20:20:21.600Z,97067.27
2018-11-25T20:22:50.540Z,97057.69
2018-11-25T20:25:19.460Z,97053.33
2018-11-25T20:27:51.143Z,97054.66
2018-11-25T20:30:23.601Z,97047.62
2018-11-25T20:32:57.523Z,97050.45
2018-11-25T20:35:26.298Z,97049.30
2018-11-25T20:38:00.181Z,97043.61
2018-11-25T20:40:28.850Z,97047.92
2018-11-25T20:42:58.215Z,97052.48
2018-11-25T20:45:38.558Z,97048.30
2018-11-25T20:48:01.194Z,97046.02
2018-11-25T20:50:29.837Z,97046.02
2018-11-25T20:53:03.583Z,97049.63
2018-11-25T20:55:32.224Z,97054.00
2018-11-25T20:58:00.938Z,97052.53
2018-11-25T21:00:30.500Z,97056.26
2018-11-25T21:02:59.133Z,97058.69
2018-11-25T21:05:27.796Z,97049.31
2018-11-25T21:07:56.489Z,97049.31
2018-11-25T21:10:26.174Z,97052.41
2018-11-25T21:12:54.854Z,97047.31
2018-11-25T21:15:23.474Z,97047.38
2018-11-25T21:17:52.096Z,97048.34
2018-11-25T21:20:23.183Z,97046.70
2018-11-25T21:22:51.819Z,97040.73
2018-11-25T21:25:21.664Z,97038.16
2018-11-25T21:27:50.435Z,97044.92
2018-11-25T21:30:27.560Z,97036.03
2018-11-25T21:32:57.398Z,97039.54
2018-11-25T21:35:26.058Z,97039.06
2018-11-25T21:37:54.669Z,97042.86
2018-11-25T21:40:24.342Z,97041.34
2018-11-25T21:42:59.458Z,97044.07
2018-11-25T21:45:28.079Z,97038.67
2018-11-25T21:47:57.991Z,97041.35
2018-11-25T21:50:26.619Z,97044.93
2018-11-25T21:52:55.231Z,97044.13
2018-11-25T21:55:24.195Z,97050.98
2018-11-25T21:57:52.811Z,97048.52
2018-11-25T22:00:22.611Z,97040.86
2018-11-25T22:02:51.240Z,97045.30
2018-11-25T22:05:20.056Z,97047.80
2018-11-25T22:07:48.611Z,97043.61
2018-11-25T22:10:18.360Z,97041.48
2018-11-25T22:12:47.206Z,97036.89
2018-11-25T22:15:17.625Z,97035.92
2018-11-25T22:17:46.291Z,97041.35
2018-11-25T22:20:15.620Z,97035.08
2018-11-25T22:22:44.270Z,97037.02
2018-11-25T22:25:13.997Z,97036.84
2018-11-25T22:27:42.654Z,97037.09
2018-11-25T22:30:16.023Z,97040.73
2018-11-25T22:32:44.675Z,97040.09
2018-11-25T22:35:14.321Z,97033.06
2018-11-25T22:37:43.016Z,97035.86
2018-11-25T22:40:12.765Z,97035.91
2018-11-25T22:42:42.153Z,97036.30
2018-11-25T22:45:12.679Z,97039.34
2018-11-25T22:47:41.321Z,97031.56
2018-11-25T22:50:11.342Z,97037.91
2018-11-25T22:52:39.998Z,97037.25
2018-11-25T22:55:14.870Z,97031.97
2018-11-25T22:57:43.612Z,97034.03
2018-11-25T23:00:43.770Z,97037.75
2018-11-25T23:03:12.379Z,97031.80
2018-11-25T23:05:51.961Z,97024.98
2018-11-25T23:08:20.586Z,97028.45
2018-11-25T23:10:49.238Z,97039.92
2018-11-25T23:13:17.881Z,97036.14
2018-11-25T23:15:46.523Z,97040.48
2018-11-25T23:18:15.134Z,97037.50
2018-11-25T23:20:43.756Z,97048.93
2018-11-25T23:23:12.367Z,97037.72
2018-11-25T23:25:41.002Z,97036.14
2018-11-25T23:28:09.636Z,97034.37
2018-11-25T23:30:38.274Z,97032.58
2018-11-25T23:33:06.919Z,97030.80
2018-11-25T23:35:35.683Z,97026.36
2018-11-25T23:38:04.295Z,97030.94
2018-11-25T23:40:32.954Z,97029.49
2018-11-25T23:43:01.570Z,97033.01
2018-11-25T23:45:30.193Z,97021.94
2018-11-25T23:47:58.828Z,97020.80
2018-11-25T23:50:27.513Z,97027.64
2018-11-25T23:52:56.166Z,97030.31
2018-11-25T23:55:24.932Z,97028.58
2018-11-25T23:57:53.555Z,97028.64
